Allegany, Oregon
Current Conditions -  °F | °C
As of 2:55 AM on Friday 21 Nov 2014 (Local Time) from KOTH Reporting Station
Broken Clouds Broken Clouds  
Wind Chill: 46°   Ceiling: 5000
Heat Index: 48°   Visibility: 10mi
Dew Point: 48°   Wind: 6mph
Humidity: 100%   Direction: 160°SSE
Pressure: 29.95"   Gusts: NA
Location:  43.43°N, 124.03°W
Report Text: KOTH 211055Z 16005KT 10SM FEW029 SCT033 BKN050 09/09 A2995 RMK AO1
Loading
Personal Weather Stations






























Interactive Weather Map New forecast layout! Learn more

10-Day Weather Forecast

Advertisements
Track Severe Weather on mobile